Time;durP1;ratioP1;P1;durP2;ratioP2;P2;SDS_P1;SDS_P2;PMS_P1;PMS_P2;Temp;Humidity;BMP_temperature;BMP_pressure;BME280_temperature;BME280_humidity;BME280_pressure;Samples;Min_cycle;Max_cycle;Signal;HPM_P1;HPM_P2
2023/07/29 00:00:46;;;;;;;2.53;1.98;;;17.80;99.90;;;;;;5001471;28;20022;-67
2023/07/29 00:03:11;;;;;;;2.20;1.80;;;17.80;99.90;;;;;;5005798;28;20076;-65
2023/07/29 00:05:38;;;;;;;3.15;1.90;;;17.90;99.90;;;;;;5006522;28;20068;-66
2023/07/29 00:08:04;;;;;;;3.10;2.10;;;17.90;99.90;;;;;;5007354;28;20029;-61
2023/07/29 00:10:31;;;;;;;5.60;1.90;;;17.90;99.90;;;;;;4991060;28;20030;-65
2023/07/29 00:12:57;;;;;;;2.33;2.05;;;17.90;99.90;;;;;;4994424;28;20130;-66
2023/07/29 00:15:23;;;;;;;2.05;1.85;;;18.00;99.90;;;;;;5010127;28;20112;-64
2023/07/29 00:17:48;;;;;;;3.55;1.73;;;18.00;99.90;;;;;;4992489;28;20029;-64
2023/07/29 00:20:15;;;;;;;2.65;1.70;;;18.00;99.90;;;;;;5002074;28;20132;-62
2023/07/29 00:22:40;;;;;;;3.40;1.80;;;18.00;99.90;;;;;;4998094;28;20089;-65
2023/07/29 00:25:06;;;;;;;1.73;1.63;;;18.00;99.90;;;;;;5000187;28;20117;-65
2023/07/29 00:27:32;;;;;;;3.80;1.83;;;18.00;99.90;;;;;;4992476;28;20106;-62
2023/07/29 00:29:58;;;;;;;5.03;1.60;;;18.00;99.90;;;;;;4987114;28;20061;-66
2023/07/29 00:32:23;;;;;;;2.60;2.05;;;18.10;99.90;;;;;;4995174;28;20496;-65
2023/07/29 00:34:49;;;;;;;2.38;1.80;;;18.10;99.90;;;;;;5006910;28;20053;-66
2023/07/29 00:37:14;;;;;;;2.95;1.92;;;18.10;99.90;;;;;;5003315;28;20415;-66
2023/07/29 00:39:40;;;;;;;8.40;1.75;;;18.10;99.90;;;;;;5006877;28;20026;-66
2023/07/29 00:42:06;;;;;;;5.43;2.45;;;18.10;99.90;;;;;;5002394;28;20387;-64
2023/07/29 00:44:32;;;;;;;2.67;1.70;;;18.10;99.90;;;;;;5006479;28;20497;-64
2023/07/29 00:46:59;;;;;;;3.42;1.98;;;18.10;99.90;;;;;;5008994;28;20108;-64
2023/07/29 00:49:24;;;;;;;4.03;1.90;;;18.10;99.90;;;;;;5006995;28;20025;-67
2023/07/29 00:51:50;;;;;;;1.70;1.30;;;18.10;99.90;;;;;;5007707;28;20064;-68
2023/07/29 00:54:16;;;;;;;4.40;1.77;;;18.10;99.90;;;;;;5005561;28;20034;-65
2023/07/29 00:56:42;;;;;;;4.57;1.67;;;18.10;99.90;;;;;;5009363;28;20041;-65
2023/07/29 00:59:08;;;;;;;2.10;1.80;;;18.10;99.90;;;;;;5005311;28;20018;-65
2023/07/29 01:01:33;;;;;;;3.83;2.10;;;18.10;99.90;;;;;;5006462;28;20042;-66
2023/07/29 01:03:59;;;;;;;2.30;2.10;;;18.10;99.90;;;;;;4969574;28;20162;-64
2023/07/29 01:06:45;;;;;;;2.00;1.80;;;18.10;99.90;;;;;;5000654;28;20050;-65
2023/07/29 01:09:15;;;;;;;4.45;1.75;;;18.10;99.90;;;;;;5005481;28;20056;-65
2023/07/29 01:12:07;;;;;;;2.47;1.83;;;18.10;99.90;;;;;;5001224;28;20029;-65
2023/07/29 01:14:46;;;;;;;4.47;1.75;;;18.10;99.90;;;;;;4994384;28;20062;-65
2023/07/29 01:17:22;;;;;;;1.80;1.63;;;18.10;99.90;;;;;;4999503;28;20065;-66
2023/07/29 01:20:06;;;;;;;2.67;1.70;;;18.10;99.90;;;;;;4998367;28;20407;-66
2023/07/29 01:22:36;;;;;;;3.85;1.50;;;18.10;99.90;;;;;;5004652;28;20041;-65
2023/07/29 01:25:02;;;;;;;1.67;1.58;;;18.10;99.90;;;;;;4994976;28;20026;-64
2023/07/29 01:27:28;;;;;;;5.70;2.20;;;18.10;99.90;;;;;;4996797;28;20050;-68
2023/07/29 01:29:56;;;;;;;2.65;1.60;;;18.10;99.90;;;;;;5022665;23;20034;-65
2023/07/29 01:32:30;;;;;;;3.08;1.98;;;18.10;99.90;;;;;;4987742;28;20066;-64
2023/07/29 01:35:20;;;;;;;1.33;1.23;;;18.10;99.90;;;;;;4987171;28;20046;-63
2023/07/29 01:37:51;;;;;;;2.25;1.85;;;18.10;99.90;;;;;;4986809;28;20033;-63
2023/07/29 01:40:18;;;;;;;5.15;1.80;;;18.10;99.90;;;;;;4988480;28;20068;-64
2023/07/29 01:42:45;;;;;;;3.97;1.67;;;18.10;99.90;;;;;;4987347;28;20161;-63
2023/07/29 01:45:11;;;;;;;2.78;1.85;;;18.10;99.90;;;;;;4978382;28;20408;-63
2023/07/29 01:47:40;;;;;;;2.40;2.20;;;18.10;99.90;;;;;;4988976;28;20108;-63
2023/07/29 01:50:06;;;;;;;3.08;1.77;;;18.10;99.90;;;;;;4986659;28;20026;-63
2023/07/29 01:52:32;;;;;;;3.70;1.77;;;18.10;99.90;;;;;;4965286;28;20076;-64
2023/07/29 01:54:57;;;;;;;4.93;1.77;;;18.10;99.90;;;;;;4986190;28;20035;-63
2023/07/29 01:57:23;;;;;;;8.05;2.08;;;18.00;99.90;;;;;;4967651;28;20041;-64
2023/07/29 01:59:48;;;;;;;2.75;1.73;;;18.00;99.90;;;;;;5003426;28;20137;-64
2023/07/29 02:02:14;;;;;;;3.13;1.60;;;18.00;99.90;;;;;;4996702;28;20138;-63
2023/07/29 02:04:39;;;;;;;2.00;1.80;;;18.00;99.90;;;;;;5001881;28;20042;-64
2023/07/29 02:07:05;;;;;;;6.32;1.85;;;18.00;99.90;;;;;;4994547;28;20041;-63
2023/07/29 02:09:31;;;;;;;4.85;2.05;;;18.00;99.90;;;;;;4994816;28;20577;-65
2023/07/29 02:11:58;;;;;;;1.25;1.13;;;18.00;99.90;;;;;;4992274;28;20061;-64
2023/07/29 02:14:23;;;;;;;8.23;2.15;;;18.00;99.90;;;;;;4979902;28;20419;-64
2023/07/29 02:16:49;;;;;;;2.15;1.90;;;18.00;99.90;;;;;;4998207;28;20026;-64
2023/07/29 02:19:16;;;;;;;1.98;1.77;;;18.00;99.90;;;;;;4979781;28;20054;-64
2023/07/29 02:21:41;;;;;;;2.00;1.73;;;18.00;99.90;;;;;;4987442;28;20045;-64
2023/07/29 02:24:07;;;;;;;5.18;2.15;;;18.00;99.90;;;;;;4998183;28;20033;-64
2023/07/29 02:26:32;;;;;;;4.38;2.08;;;18.00;99.90;;;;;;4999924;28;20137;-64
2023/07/29 02:28:58;;;;;;;4.50;1.90;;;18.00;99.90;;;;;;4978868;28;20058;-64
2023/07/29 02:31:25;;;;;;;1.90;1.70;;;18.10;99.90;;;;;;4991364;28;20113;-64
2023/07/29 02:33:51;;;;;;;3.35;2.00;;;18.20;99.90;;;;;;4980439;28;20118;-64
2023/07/29 02:36:17;;;;;;;2.33;1.67;;;18.10;99.90;;;;;;4991719;28;20081;-64
2023/07/29 02:38:43;;;;;;;1.63;1.52;;;18.10;99.90;;;;;;4988434;28;20030;-64
2023/07/29 02:41:09;;;;;;;3.47;1.90;;;18.20;99.90;;;;;;4991800;28;20033;-65
2023/07/29 02:43:35;;;;;;;3.10;1.75;;;18.10;99.90;;;;;;4972858;28;20057;-64
2023/07/29 02:46:02;;;;;;;3.40;2.28;;;18.10;99.90;;;;;;4991200;28;20256;-63
2023/07/29 02:48:28;;;;;;;4.43;1.80;;;18.10;99.90;;;;;;4983972;28;20026;-64
2023/07/29 02:50:54;;;;;;;2.33;1.50;;;18.10;99.90;;;;;;4989013;28;20026;-64
2023/07/29 02:53:19;;;;;;;4.68;1.27;;;18.00;99.90;;;;;;4987392;28;20034;-64
2023/07/29 02:55:45;;;;;;;2.25;1.35;;;18.00;99.90;;;;;;4991071;28;20027;-64
2023/07/29 02:58:11;;;;;;;1.55;1.33;;;18.00;99.90;;;;;;4988950;28;20038;-64
2023/07/29 03:00:36;;;;;;;4.70;1.08;;;17.90;99.90;;;;;;4970964;28;20431;-64
2023/07/29 03:03:02;;;;;;;1.75;1.27;;;17.90;99.90;;;;;;4992602;28;20089;-64
2023/07/29 03:05:28;;;;;;;3.13;1.75;;;17.90;99.90;;;;;;4969160;28;20102;-64
2023/07/29 03:07:54;;;;;;;2.65;1.40;;;17.90;99.90;;;;;;4988084;28;20443;-64
2023/07/29 03:10:20;;;;;;;7.82;2.00;;;17.90;99.90;;;;;;4987215;28;20026;-63
2023/07/29 03:12:46;;;;;;;3.17;1.60;;;17.90;99.90;;;;;;4990922;28;20030;-64
2023/07/29 03:15:12;;;;;;;4.95;2.00;;;17.90;99.90;;;;;;4988810;28;20041;-63
2023/07/29 03:17:37;;;;;;;2.15;1.80;;;17.90;99.90;;;;;;4972901;28;20033;-64
2023/07/29 03:20:03;;;;;;;4.25;2.13;;;17.90;99.90;;;;;;4987273;28;20023;-64
2023/07/29 03:22:29;;;;;;;3.80;1.90;;;17.90;99.90;;;;;;4988571;28;20425;-64
2023/07/29 03:24:54;;;;;;;3.60;2.70;;;17.90;99.90;;;;;;4978311;28;20086;-64
2023/07/29 03:27:20;;;;;;;3.78;2.50;;;17.90;99.90;;;;;;4979084;28;20146;-65
2023/07/29 03:29:46;;;;;;;3.65;2.65;;;17.90;99.90;;;;;;4989798;28;20396;-64
2023/07/29 03:32:11;;;;;;;6.20;2.13;;;17.90;99.90;;;;;;4976589;28;20039;-64
2023/07/29 03:34:38;;;;;;;7.22;2.60;;;17.90;99.90;;;;;;4983583;28;21126;-63
2023/07/29 03:37:04;;;;;;;4.40;2.70;;;17.90;99.90;;;;;;4980147;28;20030;-63
2023/07/29 03:39:29;;;;;;;3.58;2.95;;;17.90;99.90;;;;;;4985163;28;20035;-63
2023/07/29 03:41:55;;;;;;;5.45;2.28;;;17.90;99.90;;;;;;4981962;28;20026;-63
2023/07/29 03:44:20;;;;;;;3.05;2.63;;;17.90;99.90;;;;;;4983788;28;20069;-63
2023/07/29 03:46:46;;;;;;;4.85;2.95;;;18.00;99.90;;;;;;4961957;28;20030;-63
2023/07/29 03:49:12;;;;;;;3.78;2.70;;;18.00;99.90;;;;;;4980742;28;20485;-64
2023/07/29 03:51:37;;;;;;;10.23;3.25;;;18.00;99.90;;;;;;4984742;28;20504;-64
2023/07/29 03:54:03;;;;;;;4.00;3.00;;;18.00;99.90;;;;;;4986816;28;20452;-64
2023/07/29 03:56:29;;;;;;;4.93;3.50;;;18.00;99.90;;;;;;4972294;28;20019;-63
2023/07/29 03:59:02;;;;;;;9.40;3.60;;;18.00;99.90;;;;;;4989447;28;20105;-63
2023/07/29 04:01:28;;;;;;;5.40;3.75;;;18.10;99.90;;;;;;4988547;28;20491;-62
2023/07/29 04:03:54;;;;;;;7.30;4.20;;;18.10;99.90;;;;;;4988571;28;20030;-64
2023/07/29 04:06:20;;;;;;;4.82;3.78;;;18.00;99.90;;;;;;4988166;28;20450;-64
2023/07/29 04:08:46;;;;;;;4.30;3.35;;;18.00;99.90;;;;;;4985041;28;21043;-64
2023/07/29 04:11:11;;;;;;;3.90;3.00;;;18.00;99.90;;;;;;4989670;28;20942;-63
2023/07/29 04:13:37;;;;;;;4.72;3.20;;;18.00;99.90;;;;;;4981001;28;20408;-64
2023/07/29 04:16:04;;;;;;;5.43;3.05;;;18.00;99.90;;;;;;4987549;28;20034;-64
2023/07/29 04:18:29;;;;;;;3.67;2.75;;;18.00;99.90;;;;;;4991567;28;20515;-64
2023/07/29 04:20:55;;;;;;;6.03;2.70;;;18.00;99.90;;;;;;4985674;28;20036;-64
2023/07/29 04:23:21;;;;;;;4.60;2.20;;;18.00;99.90;;;;;;4981094;28;20034;-64
2023/07/29 04:25:46;;;;;;;3.25;2.17;;;18.00;99.90;;;;;;4985661;28;20400;-64
2023/07/29 04:28:12;;;;;;;4.13;2.33;;;18.00;99.90;;;;;;4989752;28;20157;-64
2023/07/29 04:30:37;;;;;;;8.23;2.60;;;17.90;99.90;;;;;;4985429;28;20160;-64
2023/07/29 04:33:03;;;;;;;4.47;2.50;;;18.00;99.90;;;;;;4986294;28;20533;-63
2023/07/29 04:35:29;;;;;;;8.63;2.95;;;17.90;99.90;;;;;;4986896;28;20454;-64
2023/07/29 04:37:54;;;;;;;4.60;2.90;;;17.90;99.90;;;;;;4987315;28;20599;-64
2023/07/29 04:40:20;;;;;;;3.80;2.70;;;17.90;99.90;;;;;;4989129;28;20036;-63
2023/07/29 04:42:46;;;;;;;9.82;2.97;;;17.90;99.90;;;;;;4989509;28;20367;-64
2023/07/29 04:45:11;;;;;;;5.25;2.90;;;18.00;99.90;;;;;;4984986;28;20034;-64
2023/07/29 04:47:37;;;;;;;3.83;2.63;;;18.00;99.90;;;;;;4989211;28;20038;-64
2023/07/29 04:50:03;;;;;;;5.85;2.75;;;18.00;99.90;;;;;;4988713;28;20034;-64
2023/07/29 04:52:28;;;;;;;2.80;2.38;;;18.00;99.90;;;;;;4986907;28;20030;-64
2023/07/29 04:54:54;;;;;;;3.03;2.08;;;18.00;99.90;;;;;;4986527;28;20108;-64
2023/07/29 04:57:19;;;;;;;2.53;2.30;;;18.00;99.90;;;;;;4987936;28;20030;-64
2023/07/29 04:59:45;;;;;;;2.97;1.77;;;18.00;99.90;;;;;;4985521;28;20027;-64
2023/07/29 05:02:11;;;;;;;5.40;2.35;;;18.00;99.90;;;;;;4984618;28;20046;-64
2023/07/29 05:04:36;;;;;;;1.83;1.52;;;18.10;99.90;;;;;;4987261;28;20069;-64
2023/07/29 05:07:02;;;;;;;4.40;2.20;;;18.00;99.90;;;;;;4985738;28;20460;-63
2023/07/29 05:09:28;;;;;;;2.88;2.40;;;18.00;99.90;;;;;;4987889;28;20042;-63
2023/07/29 05:11:53;;;;;;;3.03;2.15;;;18.00;99.90;;;;;;4986833;28;20031;-64
2023/07/29 05:14:19;;;;;;;2.47;2.15;;;18.00;99.90;;;;;;4988134;28;20041;-63
2023/07/29 05:16:45;;;;;;;7.03;2.42;;;18.00;99.90;;;;;;4987693;28;20026;-64
2023/07/29 05:19:10;;;;;;;3.78;2.13;;;18.10;99.90;;;;;;4985694;28;20369;-64
2023/07/29 05:21:37;;;;;;;4.10;1.83;;;18.10;99.90;;;;;;4986712;28;20034;-64
2023/07/29 05:24:03;;;;;;;8.48;2.20;;;18.10;99.90;;;;;;4984738;28;20041;-63
2023/07/29 05:26:29;;;;;;;2.42;1.77;;;18.20;99.90;;;;;;4977304;28;20035;-64
2023/07/29 05:28:54;;;;;;;5.00;2.30;;;18.20;99.90;;;;;;4979861;28;20058;-64
2023/07/29 05:31:20;;;;;;;2.70;1.63;;;18.20;99.90;;;;;;4983476;28;20044;-64
2023/07/29 05:33:45;;;;;;;3.15;2.05;;;18.20;99.90;;;;;;4982103;28;20034;-64
2023/07/29 05:36:11;;;;;;;4.15;1.83;;;18.30;99.90;;;;;;4983417;28;20034;-64
2023/07/29 05:38:36;;;;;;;2.40;1.70;;;18.30;99.90;;;;;;4964489;28;20069;-64
2023/07/29 05:41:02;;;;;;;4.03;1.83;;;18.40;99.90;;;;;;4979568;28;20026;-64
2023/07/29 05:43:28;;;;;;;3.60;1.55;;;18.50;99.90;;;;;;4977096;28;20034;-64
2023/07/29 05:45:53;;;;;;;2.97;1.73;;;18.60;99.90;;;;;;4965397;28;20184;-64
2023/07/29 05:48:22;;;;;;;5.05;1.75;;;18.70;99.90;;;;;;4977593;28;20042;-64
2023/07/29 05:50:48;;;;;;;4.85;1.55;;;18.70;99.90;;;;;;4981877;28;20038;-64
2023/07/29 05:53:14;;;;;;;3.75;1.52;;;18.60;99.90;;;;;;4983508;28;20022;-64
2023/07/29 05:55:40;;;;;;;3.30;1.52;;;18.60;99.90;;;;;;4986641;28;20026;-64
2023/07/29 05:58:05;;;;;;;5.20;1.95;;;18.60;99.90;;;;;;4985454;28;20030;-64
2023/07/29 06:00:31;;;;;;;3.92;1.80;;;18.60;99.90;;;;;;4987607;28;20294;-65
2023/07/29 06:02:57;;;;;;;2.25;2.00;;;18.50;99.90;;;;;;4988393;28;20484;-64
2023/07/29 06:05:22;;;;;;;4.63;1.98;;;18.50;99.90;;;;;;4988491;28;20858;-64
2023/07/29 06:07:48;;;;;;;2.88;2.00;;;18.50;99.90;;;;;;4987907;28;20018;-64
2023/07/29 06:10:19;;;;;;;2.03;1.70;;;18.60;99.90;;;;;;4991288;28;20026;-63
2023/07/29 06:12:45;;;;;;;5.05;2.10;;;18.60;99.90;;;;;;4991862;28;20025;-64
2023/07/29 06:15:12;;;;;;;4.43;1.88;;;18.60;99.90;;;;;;4991564;28;20042;-64
2023/07/29 06:17:38;;;;;;;5.13;1.33;;;18.70;99.90;;;;;;4989568;28;20476;-64
2023/07/29 06:20:04;;;;;;;6.00;2.25;;;18.80;99.90;;;;;;4993295;28;20496;-64
2023/07/29 06:22:30;;;;;;;3.55;2.60;;;18.90;99.90;;;;;;4986749;28;20041;-63
2023/07/29 06:24:55;;;;;;;3.15;2.30;;;19.00;99.90;;;;;;4991117;28;20030;-64
2023/07/29 06:27:21;;;;;;;3.55;2.30;;;19.10;99.90;;;;;;4990341;28;20042;-64
2023/07/29 06:29:46;;;;;;;4.63;2.88;;;19.20;99.90;;;;;;4991659;28;20057;-64
2023/07/29 06:32:12;;;;;;;9.02;3.17;;;19.30;99.90;;;;;;4990717;28;20056;-64
2023/07/29 06:34:37;;;;;;;4.43;2.78;;;19.30;99.90;;;;;;4990491;28;20068;-64
2023/07/29 06:37:03;;;;;;;5.72;3.17;;;19.40;99.90;;;;;;4988590;28;20046;-64
2023/07/29 06:39:28;;;;;;;5.63;2.53;;;19.40;99.90;;;;;;4990694;28;20018;-64
2023/07/29 06:41:54;;;;;;;6.60;3.22;;;19.50;99.90;;;;;;4987254;28;20026;-64
2023/07/29 06:44:20;;;;;;;4.53;3.40;;;19.40;99.90;;;;;;4992001;28;20049;-64
2023/07/29 06:46:46;;;;;;;4.90;2.60;;;19.50;99.90;;;;;;4990761;28;20034;-64
2023/07/29 06:49:11;;;;;;;3.40;2.38;;;19.50;99.90;;;;;;4988525;28;20041;-64
2023/07/29 06:51:37;;;;;;;2.90;1.85;;;19.40;99.90;;;;;;4985994;28;20022;-64
2023/07/29 06:54:03;;;;;;;6.78;2.17;;;19.50;99.90;;;;;;4969877;28;20026;-64
2023/07/29 06:56:28;;;;;;;3.45;2.28;;;19.40;99.90;;;;;;4980547;28;20030;-64
2023/07/29 06:58:54;;;;;;;3.58;2.08;;;19.40;99.90;;;;;;4978332;28;20385;-64
2023/07/29 07:01:20;;;;;;;3.88;1.90;;;19.50;99.90;;;;;;4987137;28;20030;-64
2023/07/29 07:03:45;;;;;;;2.92;2.05;;;19.50;99.90;;;;;;4981662;28;20030;-63
2023/07/29 07:06:11;;;;;;;4.75;2.33;;;19.60;99.90;;;;;;4983421;28;20033;-64
2023/07/29 07:08:36;;;;;;;5.47;2.53;;;19.70;99.90;;;;;;4990399;28;20030;-63
2023/07/29 07:11:02;;;;;;;6.35;1.73;;;19.60;99.90;;;;;;4991663;28;20037;-64
2023/07/29 07:13:27;;;;;;;3.20;2.00;;;19.70;99.90;;;;;;4987627;28;20046;-64
2023/07/29 07:15:57;;;;;;;2.58;1.85;;;19.80;99.90;;;;;;4987133;28;20050;-64
2023/07/29 07:18:23;;;;;;;5.88;1.77;;;20.00;99.90;;;;;;4990983;28;20114;-65
2023/07/29 07:20:49;;;;;;;5.22;1.83;;;20.60;99.90;;;;;;4991585;28;20097;-64
2023/07/29 07:23:15;;;;;;;2.33;1.60;;;20.80;99.90;;;;;;4985252;28;20038;-64
2023/07/29 07:25:42;;;;;;;1.75;1.60;;;21.00;99.90;;;;;;4982607;28;20023;-64
2023/07/29 07:28:08;;;;;;;3.63;1.65;;;21.20;99.90;;;;;;4968849;28;20073;-64
2023/07/29 07:30:34;;;;;;;2.38;1.40;;;21.50;99.90;;;;;;4967851;28;20030;-64
2023/07/29 07:33:00;;;;;;;1.73;1.38;;;21.60;99.90;;;;;;4993422;23;20038;-66
2023/07/29 07:35:26;;;;;;;4.10;1.80;;;21.80;99.90;;;;;;4979906;28;20073;-65
2023/07/29 07:37:51;;;;;;;4.55;1.42;;;21.90;99.90;;;;;;4981661;28;20035;-65
2023/07/29 07:40:17;;;;;;;6.10;1.40;;;21.70;99.90;;;;;;4965190;28;20113;-65
2023/07/29 07:42:43;;;;;;;1.95;1.27;;;21.70;99.90;;;;;;4984793;28;20030;-65
2023/07/29 07:45:08;;;;;;;4.93;1.48;;;21.40;99.90;;;;;;4987737;28;20103;-65
2023/07/29 07:47:34;;;;;;;3.08;1.38;;;21.00;99.90;;;;;;4979596;28;20037;-65
2023/07/29 07:49:59;;;;;;;2.47;1.52;;;20.70;99.90;;;;;;4990559;28;20030;-65
2023/07/29 07:52:25;;;;;;;4.22;1.67;;;20.60;99.90;;;;;;4970830;28;20073;-65
2023/07/29 07:54:54;;;;;;;1.60;1.15;;;20.40;99.90;;;;;;4985012;28;20038;-65
2023/07/29 07:57:21;;;;;;;2.05;1.38;;;20.30;99.90;;;;;;4982452;28;20036;-61
2023/07/29 07:59:47;;;;;;;1.77;1.40;;;20.20;99.90;;;;;;4982312;28;20057;-65
2023/07/29 08:02:12;;;;;;;2.25;1.45;;;20.20;99.90;;;;;;4982523;28;20022;-66
2023/07/29 08:04:38;;;;;;;2.00;1.20;;;20.40;99.90;;;;;;4984341;28;20026;-65
2023/07/29 08:07:04;;;;;;;2.58;1.50;;;20.50;99.90;;;;;;4973365;28;20026;-66
2023/07/29 08:09:30;;;;;;;2.53;1.30;;;20.50;99.90;;;;;;4984669;28;20037;-64
2023/07/29 08:11:55;;;;;;;2.45;1.45;;;20.60;99.90;;;;;;4965217;28;20030;-64
2023/07/29 08:14:21;;;;;;;2.20;1.40;;;20.80;99.90;;;;;;4982279;28;20412;-62
2023/07/29 08:16:46;;;;;;;5.38;1.92;;;20.90;99.90;;;;;;4982867;28;20563;-64
2023/07/29 08:19:12;;;;;;;4.10;1.83;;;21.30;99.90;;;;;;4983104;28;20069;-65
2023/07/29 08:21:38;;;;;;;3.97;1.20;;;22.30;99.90;;;;;;4983612;28;20054;-64
2023/07/29 08:24:03;;;;;;;2.85;1.00;;;23.30;99.90;;;;;;4984754;28;20487;-65
2023/07/29 08:26:29;;;;;;;4.32;1.13;;;24.00;99.90;;;;;;4981044;28;20141;-63
2023/07/29 08:28:55;;;;;;;2.83;1.23;;;24.20;99.90;;;;;;4982660;28;20030;-62
2023/07/29 08:31:20;;;;;;;3.30;1.38;;;24.10;99.90;;;;;;4998409;28;20037;-63
2023/07/29 08:33:46;;;;;;;2.90;1.20;;;23.80;99.90;;;;;;4995174;28;20037;-63
2023/07/29 08:36:11;;;;;;;2.00;1.27;;;23.90;99.90;;;;;;4991755;28;20018;-63
2023/07/29 08:38:37;;;;;;;3.08;1.33;;;23.90;99.90;;;;;;4990212;28;20020;-63
2023/07/29 08:41:19;;;;;;;3.67;1.05;;;24.60;99.90;;;;;;4991287;28;20034;-64
2023/07/29 08:44:08;;;;;;;4.33;1.13;;;25.70;99.90;;;;;;4972502;28;20066;-64
2023/07/29 08:46:34;;;;;;;2.35;1.17;;;26.90;99.90;;;;;;4976708;28;20499;-64
2023/07/29 08:49:01;;;;;;;1.52;1.10;;;26.70;99.90;;;;;;4991349;28;20042;-63
2023/07/29 08:51:27;;;;;;;1.77;1.20;;;26.30;99.90;;;;;;4990913;28;20050;-63
2023/07/29 08:53:53;;;;;;;3.08;1.30;;;25.50;99.90;;;;;;4991054;28;20045;-63
2023/07/29 08:56:19;;;;;;;1.75;1.33;;;25.00;99.90;;;;;;4990163;28;20034;-61
2023/07/29 08:58:45;;;;;;;2.70;1.30;;;24.50;99.90;;;;;;4988866;28;20542;-64
2023/07/29 09:01:11;;;;;;;1.27;1.13;;;24.10;99.90;;;;;;4989308;28;20018;-64
2023/07/29 09:03:37;;;;;;;1.77;0.90;;;23.80;99.90;;;;;;4988039;28;20085;-65
2023/07/29 09:06:04;;;;;;;4.95;1.08;;;23.70;99.90;;;;;;4990820;28;20022;-64
2023/07/29 09:08:29;;;;;;;3.72;1.38;;;23.70;99.90;;;;;;4989657;28;20026;-65
2023/07/29 09:10:55;;;;;;;2.28;1.02;;;23.40;99.90;;;;;;4989960;28;20049;-63
2023/07/29 09:13:21;;;;;;;2.83;1.10;;;23.20;99.90;;;;;;4985635;28;20096;-64
2023/07/29 09:15:47;;;;;;;3.42;1.08;;;23.10;99.90;;;;;;4989916;28;20480;-64
2023/07/29 09:18:19;;;;;;;1.95;0.98;;;22.90;99.90;;;;;;4986570;28;20030;-64
2023/07/29 09:20:47;;;;;;;2.25;0.90;;;22.70;99.90;;;;;;4988713;28;20030;-64
2023/07/29 09:23:13;;;;;;;6.45;1.60;;;22.60;99.90;;;;;;4987211;28;20022;-64
2023/07/29 09:25:40;;;;;;;2.85;1.25;;;22.60;99.90;;;;;;4988283;28;20045;-64
2023/07/29 09:28:10;;;;;;;1.70;1.10;;;22.50;99.90;;;;;;4988633;28;20419;-64
2023/07/29 09:30:37;;;;;;;3.50;1.48;;;22.70;99.90;;;;;;4990457;28;20026;-64
2023/07/29 09:33:02;;;;;;;3.75;1.55;;;22.80;99.90;;;;;;4988112;28;20026;-64
2023/07/29 09:35:32;;;;;;;3.28;1.10;;;22.80;99.90;;;;;;4990501;28;20030;-64
2023/07/29 09:37:57;;;;;;;2.30;1.15;;;22.80;99.90;;;;;;4989433;28;20041;-64
2023/07/29 09:40:23;;;;;;;1.25;0.85;;;23.00;99.90;;;;;;4990118;28;20031;-59
2023/07/29 09:42:53;;;;;;;1.85;1.00;;;23.00;99.90;;;;;;4989696;28;20113;-64
2023/07/29 09:45:24;;;;;;;4.18;0.90;;;23.30;99.90;;;;;;4990769;28;20034;-64
2023/07/29 09:47:51;;;;;;;4.45;1.17;;;23.50;99.90;;;;;;4988756;28;20027;-65
2023/07/29 09:50:17;;;;;;;3.83;1.23;;;23.50;99.90;;;;;;4989533;28;20395;-64
2023/07/29 09:52:44;;;;;;;4.00;1.20;;;23.30;99.90;;;;;;4987250;28;20787;-65
2023/07/29 09:55:16;;;;;;;1.23;1.13;;;23.20;99.90;;;;;;4988943;28;20030;-65
2023/07/29 09:57:43;;;;;;;1.80;1.10;;;23.10;99.90;;;;;;4981795;28;20045;-65
2023/07/29 10:00:11;;;;;;;2.78;1.20;;;22.90;99.90;;;;;;4984445;28;20419;-65
2023/07/29 10:02:43;;;;;;;3.60;1.75;;;22.70;99.90;;;;;;4988539;28;20031;-65
2023/07/29 10:05:10;;;;;;;5.13;1.40;;;22.40;99.90;;;;;;4989642;28;20019;-65
2023/07/29 10:07:37;;;;;;;1.95;1.00;;;22.30;99.90;;;;;;4986751;28;20081;-65
2023/07/29 10:10:07;;;;;;;4.85;1.70;;;22.00;99.90;;;;;;4976846;28;20031;-65
2023/07/29 10:12:34;;;;;;;2.47;1.23;;;22.00;99.90;;;;;;4959631;28;20439;-65
2023/07/29 10:15:03;;;;;;;1.30;1.20;;;21.90;99.90;;;;;;4986896;28;20068;-65
2023/07/29 10:17:29;;;;;;;6.05;1.40;;;21.90;99.90;;;;;;4989173;28;20072;-65
2023/07/29 10:19:58;;;;;;;2.97;1.40;;;22.10;99.90;;;;;;4989425;28;20440;-66
2023/07/29 10:22:28;;;;;;;1.25;0.88;;;22.30;99.90;;;;;;4985495;28;20081;-60
2023/07/29 10:25:04;;;;;;;2.70;0.90;;;22.40;99.90;;;;;;4985498;28;20050;-66
2023/07/29 10:27:32;;;;;;;2.63;1.17;;;22.50;99.90;;;;;;4986303;28;20460;-65
2023/07/29 10:29:58;;;;;;;1.77;0.98;;;22.60;99.90;;;;;;4987990;28;20014;-65
2023/07/29 10:32:26;;;;;;;2.58;1.05;;;22.80;99.90;;;;;;4970592;28;20492;-62
2023/07/29 10:34:52;;;;;;;2.00;1.15;;;22.90;99.90;;;;;;4984761;28;20065;-64
2023/07/29 10:37:18;;;;;;;1.98;1.00;;;23.20;99.90;;;;;;4990326;28;20019;-65
2023/07/29 10:39:55;;;;;;;1.70;1.00;;;23.30;99.90;;;;;;4988993;28;20109;-65
2023/07/29 10:42:21;;;;;;;2.30;1.15;;;23.60;99.90;;;;;;4985773;28;20101;-57
2023/07/29 10:44:52;;;;;;;3.05;0.90;;;23.50;99.90;;;;;;4986190;28;20026;-64
2023/07/29 10:47:26;;;;;;;1.38;1.00;;;23.60;99.90;;;;;;4982792;28;20035;-63
2023/07/29 10:49:55;;;;;;;1.48;0.90;;;23.30;99.90;;;;;;4986601;28;20023;-65
2023/07/29 10:52:36;;;;;;;3.25;1.13;;;23.40;99.90;;;;;;4988514;28;20105;-61
2023/07/29 10:55:03;;;;;;;3.75;1.23;;;23.20;99.90;;;;;;4987347;28;20026;-64
2023/07/29 10:57:36;;;;;;;1.33;0.95;;;23.00;99.90;;;;;;4987501;28;20112;-64
2023/07/29 11:00:04;;;;;;;2.80;1.52;;;23.00;99.90;;;;;;4981351;28;20023;-66
2023/07/29 11:02:32;;;;;;;1.45;0.95;;;22.90;99.90;;;;;;4991143;28;20507;-67
2023/07/29 11:04:59;;;;;;;1.85;1.10;;;22.60;99.90;;;;;;4983255;28;20034;-64
2023/07/29 11:07:28;;;;;;;2.30;1.10;;;22.40;99.90;;;;;;4993685;28;20033;-64
2023/07/29 11:10:06;;;;;;;2.60;1.10;;;22.30;99.90;;;;;;4991907;28;20043;-64
2023/07/29 11:12:47;;;;;;;1.73;1.00;;;22.10;99.90;;;;;;4990915;28;20030;-63
2023/07/29 11:15:15;;;;;;;2.25;1.23;;;22.00;99.90;;;;;;4985938;28;20030;-64
2023/07/29 11:17:48;;;;;;;2.78;1.20;;;21.70;99.90;;;;;;4992475;28;20500;-64
2023/07/29 11:20:15;;;;;;;2.08;1.23;;;21.70;99.90;;;;;;4969487;28;20041;-64
2023/07/29 11:22:41;;;;;;;3.40;1.30;;;21.50;99.90;;;;;;4992177;28;20035;-65
2023/07/29 11:25:10;;;;;;;6.43;1.70;;;21.60;99.90;;;;;;4992268;28;20069;-64
2023/07/29 11:27:36;;;;;;;1.55;1.25;;;21.80;99.90;;;;;;4989671;28;20030;-63
2023/07/29 11:30:06;;;;;;;1.50;1.20;;;21.90;99.90;;;;;;4987631;28;20057;-64
2023/07/29 11:32:34;;;;;;;1.05;0.85;;;22.00;99.90;;;;;;4990924;28;20420;-64
2023/07/29 11:35:05;;;;;;;2.05;1.38;;;22.10;99.90;;;;;;4987461;28;20015;-65
2023/07/29 11:37:32;;;;;;;2.67;1.48;;;21.80;99.90;;;;;;4991305;28;20037;-64
2023/07/29 11:39:58;;;;;;;2.38;1.20;;;21.60;99.90;;;;;;4989477;28;20023;-64
2023/07/29 11:42:24;;;;;;;8.57;1.30;;;21.50;99.90;;;;;;4990176;28;20049;-59
2023/07/29 11:44:49;;;;;;;2.38;1.27;;;21.60;99.90;;;;;;4989466;28;20342;-63
2023/07/29 11:47:15;;;;;;;2.15;1.20;;;22.00;99.90;;;;;;4992092;28;20022;-65
2023/07/29 11:49:41;;;;;;;2.88;1.17;;;22.30;99.90;;;;;;4991355;28;20037;-66
2023/07/29 11:52:09;;;;;;;3.10;1.55;;;22.30;99.90;;;;;;4992036;28;20042;-64
2023/07/29 11:54:38;;;;;;;2.20;1.40;;;22.40;99.90;;;;;;4991160;28;20436;-64
2023/07/29 11:57:08;;;;;;;2.55;1.35;;;22.60;99.90;;;;;;4992201;28;20024;-63
2023/07/29 11:59:37;;;;;;;2.83;1.30;;;22.60;99.90;;;;;;4989800;28;20051;-65
2023/07/29 12:02:10;;;;;;;6.85;1.55;;;22.70;99.90;;;;;;4989215;28;20054;-65
2023/07/29 12:04:37;;;;;;;3.53;1.52;;;22.90;99.90;;;;;;4988678;28;20023;-63
2023/07/29 12:07:03;;;;;;;2.65;1.40;;;22.70;99.90;;;;;;4991787;28;20101;-64
2023/07/29 12:09:30;;;;;;;1.95;1.40;;;22.80;99.90;;;;;;4990341;28;20026;-66
2023/07/29 12:11:56;;;;;;;2.97;1.17;;;22.80;99.90;;;;;;4992403;28;20019;-65
2023/07/29 12:14:22;;;;;;;2.88;1.20;;;23.00;99.90;;;;;;4991986;28;20158;-58
2023/07/29 12:16:51;;;;;;;2.28;1.52;;;23.10;99.90;;;;;;4992518;28;20022;-64
2023/07/29 12:19:17;;;;;;;1.75;1.27;;;23.10;99.90;;;;;;4985438;28;20479;-64
2023/07/29 12:21:44;;;;;;;3.97;1.70;;;23.10;99.90;;;;;;4991924;28;20064;-64
2023/07/29 12:24:12;;;;;;;2.42;1.63;;;23.10;99.90;;;;;;4973579;28;20121;-64
2023/07/29 12:26:38;;;;;;;2.80;1.27;;;23.30;99.90;;;;;;4991943;28;20484;-64
2023/07/29 12:29:19;;;;;;;2.58;1.58;;;23.10;99.90;;;;;;4990426;28;20109;-64
2023/07/29 12:31:45;;;;;;;2.33;1.33;;;23.20;99.90;;;;;;4990337;28;20027;-66
2023/07/29 12:34:20;;;;;;;3.40;1.40;;;23.30;99.90;;;;;;4989880;28;20114;-65
2023/07/29 12:36:50;;;;;;;1.70;1.20;;;23.20;99.90;;;;;;4992013;28;20069;-64
2023/07/29 12:39:20;;;;;;;2.03;1.15;;;23.50;99.90;;;;;;4990869;28;20031;-64
2023/07/29 12:41:47;;;;;;;2.92;1.30;;;23.30;99.90;;;;;;4990737;28;20392;-63
2023/07/29 12:44:13;;;;;;;2.53;1.05;;;23.30;99.90;;;;;;4968934;28;20027;-64
2023/07/29 12:46:38;;;;;;;1.48;1.13;;;23.30;99.90;;;;;;4987273;28;20499;-63